sensor_id;sensor_type;location;lat;lon;timestamp;P1;durP1;ratioP1;P2;durP2;ratioP2
18973;SDS011;9621;48.690;9.466;2023-05-14T00:00:04;12.65;;;7.10;;
18973;SDS011;9621;48.690;9.466;2023-05-14T00:02:33;9.18;;;6.40;;
18973;SDS011;9621;48.690;9.466;2023-05-14T00:05:00;8.20;;;6.78;;
18973;SDS011;9621;48.690;9.466;2023-05-14T00:07:27;11.48;;;7.25;;
18973;SDS011;9621;48.690;9.466;2023-05-14T00:09:55;9.85;;;7.78;;
18973;SDS011;9621;48.690;9.466;2023-05-14T00:12:21;15.43;;;10.55;;
18973;SDS011;9621;48.690;9.466;2023-05-14T00:14:48;12.95;;;8.45;;
18973;SDS011;9621;48.690;9.466;2023-05-14T00:17:15;15.35;;;9.15;;
18973;SDS011;9621;48.690;9.466;2023-05-14T00:19:43;12.90;;;8.10;;
18973;SDS011;9621;48.690;9.466;2023-05-14T00:22:11;11.98;;;7.70;;
18973;SDS011;9621;48.690;9.466;2023-05-14T00:24:37;8.55;;;7.00;;
18973;SDS011;9621;48.690;9.466;2023-05-14T00:27:05;9.18;;;6.50;;
18973;SDS011;9621;48.690;9.466;2023-05-14T00:29:31;7.00;;;5.43;;
18973;SDS011;9621;48.690;9.466;2023-05-14T00:31:59;7.00;;;6.05;;
18973;SDS011;9621;48.690;9.466;2023-05-14T00:34:25;8.25;;;5.85;;
18973;SDS011;9621;48.690;9.466;2023-05-14T00:36:54;7.65;;;5.45;;
18973;SDS011;9621;48.690;9.466;2023-05-14T00:39:21;7.80;;;5.28;;
18973;SDS011;9621;48.690;9.466;2023-05-14T00:41:48;7.95;;;6.32;;
18973;SDS011;9621;48.690;9.466;2023-05-14T00:44:14;7.38;;;5.43;;
18973;SDS011;9621;48.690;9.466;2023-05-14T00:46:41;6.85;;;5.93;;
18973;SDS011;9621;48.690;9.466;2023-05-14T00:49:08;8.80;;;6.40;;
18973;SDS011;9621;48.690;9.466;2023-05-14T00:51:35;8.45;;;6.30;;
18973;SDS011;9621;48.690;9.466;2023-05-14T00:54:04;8.40;;;6.35;;
18973;SDS011;9621;48.690;9.466;2023-05-14T00:56:31;5.80;;;5.03;;
18973;SDS011;9621;48.690;9.466;2023-05-14T00:58:59;7.72;;;5.72;;
18973;SDS011;9621;48.690;9.466;2023-05-14T01:01:26;7.20;;;6.18;;
18973;SDS011;9621;48.690;9.466;2023-05-14T01:03:53;8.63;;;5.78;;
18973;SDS011;9621;48.690;9.466;2023-05-14T01:06:24;11.10;;;6.60;;
18973;SDS011;9621;48.690;9.466;2023-05-14T01:08:56;9.30;;;6.70;;
18973;SDS011;9621;48.690;9.466;2023-05-14T01:11:31;9.35;;;6.75;;
18973;SDS011;9621;48.690;9.466;2023-05-14T01:14:06;7.40;;;6.57;;
18973;SDS011;9621;48.690;9.466;2023-05-14T01:16:39;6.90;;;6.20;;
18973;SDS011;9621;48.690;9.466;2023-05-14T01:19:09;7.63;;;6.13;;
18973;SDS011;9621;48.690;9.466;2023-05-14T01:21:48;7.53;;;5.75;;
18973;SDS011;9621;48.690;9.466;2023-05-14T01:24:16;10.70;;;6.75;;
18973;SDS011;9621;48.690;9.466;2023-05-14T01:26:42;7.33;;;6.10;;
18973;SDS011;9621;48.690;9.466;2023-05-14T01:29:10;6.72;;;6.03;;
18973;SDS011;9621;48.690;9.466;2023-05-14T01:31:42;8.38;;;6.38;;
18973;SDS011;9621;48.690;9.466;2023-05-14T01:34:10;10.00;;;6.05;;
18973;SDS011;9621;48.690;9.466;2023-05-14T01:36:39;6.90;;;5.55;;
18973;SDS011;9621;48.690;9.466;2023-05-14T01:39:08;6.57;;;5.55;;
18973;SDS011;9621;48.690;9.466;2023-05-14T01:41:37;6.63;;;5.70;;
18973;SDS011;9621;48.690;9.466;2023-05-14T01:44:04;6.82;;;6.10;;
18973;SDS011;9621;48.690;9.466;2023-05-14T01:46:34;10.07;;;6.30;;
18973;SDS011;9621;48.690;9.466;2023-05-14T01:49:01;7.95;;;5.63;;
18973;SDS011;9621;48.690;9.466;2023-05-14T01:51:28;7.25;;;6.00;;
18973;SDS011;9621;48.690;9.466;2023-05-14T01:53:55;8.77;;;5.88;;
18973;SDS011;9621;48.690;9.466;2023-05-14T01:56:24;7.65;;;6.28;;
18973;SDS011;9621;48.690;9.466;2023-05-14T01:58:51;20.52;;;7.20;;
18973;SDS011;9621;48.690;9.466;2023-05-14T02:01:19;11.45;;;6.82;;
18973;SDS011;9621;48.690;9.466;2023-05-14T02:03:47;20.85;;;7.13;;
18973;SDS011;9621;48.690;9.466;2023-05-14T02:06:15;23.08;;;7.78;;
18973;SDS011;9621;48.690;9.466;2023-05-14T02:08:42;58.65;;;8.82;;
18973;SDS011;9621;48.690;9.466;2023-05-14T02:11:08;51.90;;;9.27;;
18973;SDS011;9621;48.690;9.466;2023-05-14T02:13:37;32.67;;;8.77;;
18973;SDS011;9621;48.690;9.466;2023-05-14T02:16:04;20.77;;;8.15;;
18973;SDS011;9621;48.690;9.466;2023-05-14T02:18:31;42.90;;;9.73;;
18973;SDS011;9621;48.690;9.466;2023-05-14T02:20:58;28.47;;;8.20;;
18973;SDS011;9621;48.690;9.466;2023-05-14T02:23:25;25.23;;;7.70;;
18973;SDS011;9621;48.690;9.466;2023-05-14T02:25:52;52.30;;;7.78;;
18973;SDS011;9621;48.690;9.466;2023-05-14T02:28:19;35.93;;;8.23;;
18973;SDS011;9621;48.690;9.466;2023-05-14T02:30:48;23.48;;;7.63;;
18973;SDS011;9621;48.690;9.466;2023-05-14T02:33:15;16.90;;;7.57;;
18973;SDS011;9621;48.690;9.466;2023-05-14T02:35:41;28.05;;;7.78;;
18973;SDS011;9621;48.690;9.466;2023-05-14T02:38:09;20.75;;;7.40;;
18973;SDS011;9621;48.690;9.466;2023-05-14T02:40:35;21.43;;;6.83;;
18973;SDS011;9621;48.690;9.466;2023-05-14T02:43:02;23.38;;;7.07;;
18973;SDS011;9621;48.690;9.466;2023-05-14T02:45:30;13.07;;;7.67;;
18973;SDS011;9621;48.690;9.466;2023-05-14T02:47:58;12.10;;;7.28;;
18973;SDS011;9621;48.690;9.466;2023-05-14T02:50:25;13.02;;;7.30;;
18973;SDS011;9621;48.690;9.466;2023-05-14T02:52:52;8.50;;;6.77;;
18973;SDS011;9621;48.690;9.466;2023-05-14T02:55:19;9.63;;;6.40;;
18973;SDS011;9621;48.690;9.466;2023-05-14T02:57:46;8.15;;;6.28;;
18973;SDS011;9621;48.690;9.466;2023-05-14T03:00:14;8.18;;;6.25;;
18973;SDS011;9621;48.690;9.466;2023-05-14T03:02:41;10.18;;;7.80;;
18973;SDS011;9621;48.690;9.466;2023-05-14T03:05:10;14.10;;;7.72;;
18973;SDS011;9621;48.690;9.466;2023-05-14T03:07:36;7.80;;;6.78;;
18973;SDS011;9621;48.690;9.466;2023-05-14T03:10:04;10.02;;;6.85;;
18973;SDS011;9621;48.690;9.466;2023-05-14T03:12:31;8.45;;;7.18;;
18973;SDS011;9621;48.690;9.466;2023-05-14T03:14:58;8.88;;;6.50;;
18973;SDS011;9621;48.690;9.466;2023-05-14T03:17:25;9.40;;;6.90;;
18973;SDS011;9621;48.690;9.466;2023-05-14T03:19:52;9.38;;;7.00;;
18973;SDS011;9621;48.690;9.466;2023-05-14T03:22:20;13.15;;;7.15;;
18973;SDS011;9621;48.690;9.466;2023-05-14T03:24:47;8.95;;;6.78;;
18973;SDS011;9621;48.690;9.466;2023-05-14T03:27:14;8.93;;;6.55;;
18973;SDS011;9621;48.690;9.466;2023-05-14T03:29:41;10.88;;;6.78;;
18973;SDS011;9621;48.690;9.466;2023-05-14T03:32:07;11.80;;;7.07;;
18973;SDS011;9621;48.690;9.466;2023-05-14T03:34:34;9.95;;;7.05;;
18973;SDS011;9621;48.690;9.466;2023-05-14T03:37:02;9.23;;;7.30;;
18973;SDS011;9621;48.690;9.466;2023-05-14T03:39:30;12.60;;;6.95;;
18973;SDS011;9621;48.690;9.466;2023-05-14T03:41:57;12.75;;;7.75;;
18973;SDS011;9621;48.690;9.466;2023-05-14T03:44:24;8.17;;;7.20;;
18973;SDS011;9621;48.690;9.466;2023-05-14T03:46:51;13.38;;;6.85;;
18973;SDS011;9621;48.690;9.466;2023-05-14T03:49:18;8.20;;;6.95;;
18973;SDS011;9621;48.690;9.466;2023-05-14T03:51:45;11.40;;;7.45;;
18973;SDS011;9621;48.690;9.466;2023-05-14T03:54:12;8.18;;;6.88;;
18973;SDS011;9621;48.690;9.466;2023-05-14T03:56:40;9.15;;;7.22;;
18973;SDS011;9621;48.690;9.466;2023-05-14T03:59:07;9.80;;;7.13;;
18973;SDS011;9621;48.690;9.466;2023-05-14T04:01:34;10.68;;;8.27;;
18973;SDS011;9621;48.690;9.466;2023-05-14T04:04:01;12.50;;;7.35;;
18973;SDS011;9621;48.690;9.466;2023-05-14T04:06:27;9.07;;;7.32;;
18973;SDS011;9621;48.690;9.466;2023-05-14T04:08:55;11.43;;;7.00;;
18973;SDS011;9621;48.690;9.466;2023-05-14T04:11:22;10.98;;;7.22;;
18973;SDS011;9621;48.690;9.466;2023-05-14T04:13:50;8.47;;;7.00;;
18973;SDS011;9621;48.690;9.466;2023-05-14T04:16:17;8.60;;;7.38;;
18973;SDS011;9621;48.690;9.466;2023-05-14T04:18:43;7.20;;;6.43;;
18973;SDS011;9621;48.690;9.466;2023-05-14T04:21:10;8.50;;;6.57;;
18973;SDS011;9621;48.690;9.466;2023-05-14T04:23:37;9.05;;;6.90;;
18973;SDS011;9621;48.690;9.466;2023-05-14T04:26:04;12.88;;;6.53;;
18973;SDS011;9621;48.690;9.466;2023-05-14T04:28:31;9.07;;;6.57;;
18973;SDS011;9621;48.690;9.466;2023-05-14T04:30:59;9.73;;;6.57;;
18973;SDS011;9621;48.690;9.466;2023-05-14T04:33:26;7.65;;;6.35;;
18973;SDS011;9621;48.690;9.466;2023-05-14T04:35:53;6.85;;;5.70;;
18973;SDS011;9621;48.690;9.466;2023-05-14T04:38:20;6.63;;;5.72;;
18973;SDS011;9621;48.690;9.466;2023-05-14T04:40:47;6.68;;;5.97;;
18973;SDS011;9621;48.690;9.466;2023-05-14T04:43:14;6.82;;;5.70;;
18973;SDS011;9621;48.690;9.466;2023-05-14T04:45:41;6.05;;;5.45;;
18973;SDS011;9621;48.690;9.466;2023-05-14T04:48:10;7.50;;;5.85;;
18973;SDS011;9621;48.690;9.466;2023-05-14T04:50:36;7.53;;;6.03;;
18973;SDS011;9621;48.690;9.466;2023-05-14T04:53:03;6.25;;;5.53;;
18973;SDS011;9621;48.690;9.466;2023-05-14T04:55:30;7.30;;;5.80;;
18973;SDS011;9621;48.690;9.466;2023-05-14T04:57:57;8.90;;;6.00;;
18973;SDS011;9621;48.690;9.466;2023-05-14T05:00:24;7.55;;;6.40;;
18973;SDS011;9621;48.690;9.466;2023-05-14T05:02:51;6.65;;;5.85;;
18973;SDS011;9621;48.690;9.466;2023-05-14T05:05:19;7.88;;;6.10;;
18973;SDS011;9621;48.690;9.466;2023-05-14T05:07:47;9.57;;;6.60;;
18973;SDS011;9621;48.690;9.466;2023-05-14T05:10:13;9.02;;;6.43;;
18973;SDS011;9621;48.690;9.466;2023-05-14T05:12:40;11.98;;;6.50;;
18973;SDS011;9621;48.690;9.466;2023-05-14T05:15:07;11.38;;;6.07;;
18973;SDS011;9621;48.690;9.466;2023-05-14T05:17:35;7.07;;;6.00;;
18973;SDS011;9621;48.690;9.466;2023-05-14T05:20:02;6.88;;;5.70;;
18973;SDS011;9621;48.690;9.466;2023-05-14T05:22:33;7.40;;;5.60;;
18973;SDS011;9621;48.690;9.466;2023-05-14T05:25:00;7.30;;;6.25;;
18973;SDS011;9621;48.690;9.466;2023-05-14T05:27:30;8.57;;;5.88;;
18973;SDS011;9621;48.690;9.466;2023-05-14T05:29:57;7.25;;;6.15;;
18973;SDS011;9621;48.690;9.466;2023-05-14T05:32:24;9.60;;;6.20;;
18973;SDS011;9621;48.690;9.466;2023-05-14T05:34:51;8.77;;;6.63;;
18973;SDS011;9621;48.690;9.466;2023-05-14T05:37:18;8.02;;;6.93;;
18973;SDS011;9621;48.690;9.466;2023-05-14T05:39:46;8.73;;;6.45;;
18973;SDS011;9621;48.690;9.466;2023-05-14T05:42:13;7.90;;;6.45;;
18973;SDS011;9621;48.690;9.466;2023-05-14T05:44:40;7.72;;;6.40;;
18973;SDS011;9621;48.690;9.466;2023-05-14T05:47:07;8.45;;;6.60;;
18973;SDS011;9621;48.690;9.466;2023-05-14T05:49:34;7.88;;;5.80;;
18973;SDS011;9621;48.690;9.466;2023-05-14T05:52:01;7.00;;;6.20;;
18973;SDS011;9621;48.690;9.466;2023-05-14T05:54:29;8.15;;;5.75;;
18973;SDS011;9621;48.690;9.466;2023-05-14T05:56:58;10.80;;;6.40;;
18973;SDS011;9621;48.690;9.466;2023-05-14T05:59:25;8.77;;;6.40;;
18973;SDS011;9621;48.690;9.466;2023-05-14T06:01:52;8.15;;;6.88;;
18973;SDS011;9621;48.690;9.466;2023-05-14T06:04:19;8.20;;;6.93;;
18973;SDS011;9621;48.690;9.466;2023-05-14T06:06:46;9.27;;;8.02;;
18973;SDS011;9621;48.690;9.466;2023-05-14T06:09:13;10.07;;;7.53;;
18973;SDS011;9621;48.690;9.466;2023-05-14T06:11:40;8.55;;;7.50;;
18973;SDS011;9621;48.690;9.466;2023-05-14T06:14:08;9.20;;;7.47;;
18973;SDS011;9621;48.690;9.466;2023-05-14T06:16:35;10.88;;;7.93;;
18973;SDS011;9621;48.690;9.466;2023-05-14T06:19:02;7.80;;;7.00;;
18973;SDS011;9621;48.690;9.466;2023-05-14T06:21:28;9.43;;;7.07;;
18973;SDS011;9621;48.690;9.466;2023-05-14T06:23:55;9.23;;;7.38;;
18973;SDS011;9621;48.690;9.466;2023-05-14T06:26:25;9.57;;;7.60;;
18973;SDS011;9621;48.690;9.466;2023-05-14T06:28:52;9.65;;;7.60;;
18973;SDS011;9621;48.690;9.466;2023-05-14T06:31:21;11.02;;;7.70;;
18973;SDS011;9621;48.690;9.466;2023-05-14T06:33:48;11.02;;;8.55;;
18973;SDS011;9621;48.690;9.466;2023-05-14T06:36:15;9.80;;;7.63;;
18973;SDS011;9621;48.690;9.466;2023-05-14T06:38:42;12.35;;;7.95;;
18973;SDS011;9621;48.690;9.466;2023-05-14T06:41:08;9.75;;;8.43;;
18973;SDS011;9621;48.690;9.466;2023-05-14T06:43:38;12.10;;;8.77;;
18973;SDS011;9621;48.690;9.466;2023-05-14T06:46:05;13.73;;;8.90;;
18973;SDS011;9621;48.690;9.466;2023-05-14T06:48:34;11.75;;;9.27;;
18973;SDS011;9621;48.690;9.466;2023-05-14T06:51:00;10.40;;;8.95;;
18973;SDS011;9621;48.690;9.466;2023-05-14T06:53:28;9.93;;;8.52;;
18973;SDS011;9621;48.690;9.466;2023-05-14T06:55:55;10.23;;;8.75;;
18973;SDS011;9621;48.690;9.466;2023-05-14T06:58:22;10.18;;;8.23;;
18973;SDS011;9621;48.690;9.466;2023-05-14T07:00:52;12.23;;;10.02;;
18973;SDS011;9621;48.690;9.466;2023-05-14T07:03:19;12.18;;;9.43;;
18973;SDS011;9621;48.690;9.466;2023-05-14T07:05:48;11.00;;;9.13;;
18973;SDS011;9621;48.690;9.466;2023-05-14T07:08:17;10.88;;;8.00;;
18973;SDS011;9621;48.690;9.466;2023-05-14T07:10:44;10.30;;;8.27;;
18973;SDS011;9621;48.690;9.466;2023-05-14T07:13:11;10.45;;;8.38;;
18973;SDS011;9621;48.690;9.466;2023-05-14T07:15:38;10.25;;;8.65;;
18973;SDS011;9621;48.690;9.466;2023-05-14T07:18:05;12.85;;;8.68;;
18973;SDS011;9621;48.690;9.466;2023-05-14T07:20:33;9.80;;;8.35;;
18973;SDS011;9621;48.690;9.466;2023-05-14T07:23:01;12.48;;;9.30;;
18973;SDS011;9621;48.690;9.466;2023-05-14T07:25:28;14.15;;;9.70;;
18973;SDS011;9621;48.690;9.466;2023-05-14T07:27:56;13.48;;;9.60;;
18973;SDS011;9621;48.690;9.466;2023-05-14T07:30:23;15.15;;;9.65;;
18973;SDS011;9621;48.690;9.466;2023-05-14T07:32:50;13.98;;;8.98;;
18973;SDS011;9621;48.690;9.466;2023-05-14T07:35:17;11.10;;;9.18;;
18973;SDS011;9621;48.690;9.466;2023-05-14T07:37:44;10.40;;;8.50;;
18973;SDS011;9621;48.690;9.466;2023-05-14T07:40:15;11.13;;;8.38;;
18973;SDS011;9621;48.690;9.466;2023-05-14T07:42:43;13.00;;;9.05;;
18973;SDS011;9621;48.690;9.466;2023-05-14T07:45:11;11.18;;;8.52;;
18973;SDS011;9621;48.690;9.466;2023-05-14T07:47:38;12.90;;;8.18;;
18973;SDS011;9621;48.690;9.466;2023-05-14T07:50:06;11.55;;;8.75;;
18973;SDS011;9621;48.690;9.466;2023-05-14T07:52:33;12.52;;;9.32;;
18973;SDS011;9621;48.690;9.466;2023-05-14T07:55:02;12.18;;;10.27;;
18973;SDS011;9621;48.690;9.466;2023-05-14T07:57:30;11.07;;;9.40;;
18973;SDS011;9621;48.690;9.466;2023-05-14T07:59:57;14.80;;;10.57;;
18973;SDS011;9621;48.690;9.466;2023-05-14T08:02:27;18.55;;;11.13;;
18973;SDS011;9621;48.690;9.466;2023-05-14T08:04:54;13.88;;;10.80;;
18973;SDS011;9621;48.690;9.466;2023-05-14T08:07:20;13.30;;;10.25;;
18973;SDS011;9621;48.690;9.466;2023-05-14T08:09:47;12.60;;;9.65;;
18973;SDS011;9621;48.690;9.466;2023-05-14T08:12:14;14.90;;;9.60;;
18973;SDS011;9621;48.690;9.466;2023-05-14T08:14:45;11.50;;;8.60;;
18973;SDS011;9621;48.690;9.466;2023-05-14T08:17:12;9.52;;;8.48;;
18973;SDS011;9621;48.690;9.466;2023-05-14T08:19:39;10.85;;;8.27;;
18973;SDS011;9621;48.690;9.466;2023-05-14T08:22:06;10.05;;;8.18;;
18973;SDS011;9621;48.690;9.466;2023-05-14T08:24:34;10.75;;;7.88;;
18973;SDS011;9621;48.690;9.466;2023-05-14T08:27:01;10.25;;;8.23;;
18973;SDS011;9621;48.690;9.466;2023-05-14T08:29:28;9.05;;;8.02;;
18973;SDS011;9621;48.690;9.466;2023-05-14T08:32:01;9.65;;;8.05;;
18973;SDS011;9621;48.690;9.466;2023-05-14T08:34:29;9.73;;;7.93;;
18973;SDS011;9621;48.690;9.466;2023-05-14T08:36:56;10.20;;;8.48;;
18973;SDS011;9621;48.690;9.466;2023-05-14T08:39:23;8.90;;;7.35;;
18973;SDS011;9621;48.690;9.466;2023-05-14T08:41:50;10.10;;;7.93;;
18973;SDS011;9621;48.690;9.466;2023-05-14T08:44:18;9.18;;;7.18;;
18973;SDS011;9621;48.690;9.466;2023-05-14T08:46:45;8.02;;;7.15;;
18973;SDS011;9621;48.690;9.466;2023-05-14T08:49:20;9.30;;;7.40;;
18973;SDS011;9621;48.690;9.466;2023-05-14T08:51:51;10.82;;;7.30;;
18973;SDS011;9621;48.690;9.466;2023-05-14T08:54:19;7.80;;;6.70;;
18973;SDS011;9621;48.690;9.466;2023-05-14T08:56:51;10.82;;;7.03;;
18973;SDS011;9621;48.690;9.466;2023-05-14T08:59:18;8.00;;;7.20;;
18973;SDS011;9621;48.690;9.466;2023-05-14T09:01:45;7.53;;;6.70;;
18973;SDS011;9621;48.690;9.466;2023-05-14T09:04:13;8.00;;;6.75;;
18973;SDS011;9621;48.690;9.466;2023-05-14T09:06:43;8.82;;;6.50;;
18973;SDS011;9621;48.690;9.466;2023-05-14T09:09:13;8.13;;;6.88;;
18973;SDS011;9621;48.690;9.466;2023-05-14T09:11:40;8.77;;;7.10;;
18973;SDS011;9621;48.690;9.466;2023-05-14T09:14:13;7.57;;;6.78;;
18973;SDS011;9621;48.690;9.466;2023-05-14T09:16:40;8.75;;;6.80;;
18973;SDS011;9621;48.690;9.466;2023-05-14T09:19:10;8.95;;;7.55;;
18973;SDS011;9621;48.690;9.466;2023-05-14T09:21:39;9.90;;;6.90;;
18973;SDS011;9621;48.690;9.466;2023-05-14T09:24:09;7.35;;;6.63;;
18973;SDS011;9621;48.690;9.466;2023-05-14T09:26:48;10.23;;;7.20;;
18973;SDS011;9621;48.690;9.466;2023-05-14T09:29:15;7.32;;;6.47;;
18973;SDS011;9621;48.690;9.466;2023-05-14T09:31:42;10.13;;;6.47;;
18973;SDS011;9621;48.690;9.466;2023-05-14T09:34:10;7.18;;;6.15;;
18973;SDS011;9621;48.690;9.466;2023-05-14T09:36:37;7.00;;;5.85;;
18973;SDS011;9621;48.690;9.466;2023-05-14T09:39:04;7.63;;;5.78;;
18973;SDS011;9621;48.690;9.466;2023-05-14T09:41:33;7.22;;;6.10;;
18973;SDS011;9621;48.690;9.466;2023-05-14T09:44:01;6.43;;;5.30;;
18973;SDS011;9621;48.690;9.466;2023-05-14T09:46:28;5.38;;;4.68;;
18973;SDS011;9621;48.690;9.466;2023-05-14T09:48:55;6.72;;;4.40;;
18973;SDS011;9621;48.690;9.466;2023-05-14T09:51:23;5.63;;;4.65;;
18973;SDS011;9621;48.690;9.466;2023-05-14T09:53:57;6.28;;;5.43;;
18973;SDS011;9621;48.690;9.466;2023-05-14T09:56:29;6.40;;;5.47;;
18973;SDS011;9621;48.690;9.466;2023-05-14T09:58:57;6.22;;;5.20;;
18973;SDS011;9621;48.690;9.466;2023-05-14T10:01:24;5.30;;;4.80;;
18973;SDS011;9621;48.690;9.466;2023-05-14T10:04:06;5.45;;;4.55;;
18973;SDS011;9621;48.690;9.466;2023-05-14T10:06:35;5.00;;;4.50;;
18973;SDS011;9621;48.690;9.466;2023-05-14T10:09:04;7.78;;;4.13;;
18973;SDS011;9621;48.690;9.466;2023-05-14T10:11:36;6.60;;;5.60;;
18973;SDS011;9621;48.690;9.466;2023-05-14T10:14:06;6.22;;;4.93;;
18973;SDS011;9621;48.690;9.466;2023-05-14T10:16:36;6.65;;;5.13;;
18973;SDS011;9621;48.690;9.466;2023-05-14T10:19:07;6.45;;;5.43;;
18973;SDS011;9621;48.690;9.466;2023-05-14T10:21:35;5.68;;;5.07;;
18973;SDS011;9621;48.690;9.466;2023-05-14T10:24:04;5.70;;;5.10;;
18973;SDS011;9621;48.690;9.466;2023-05-14T10:26:33;5.60;;;5.03;;
18973;SDS011;9621;48.690;9.466;2023-05-14T10:29:03;5.72;;;5.13;;
18973;SDS011;9621;48.690;9.466;2023-05-14T10:31:48;6.00;;;5.35;;
18973;SDS011;9621;48.690;9.466;2023-05-14T10:34:30;5.60;;;4.78;;
18973;SDS011;9621;48.690;9.466;2023-05-14T10:37:04;5.30;;;4.38;;
18973;SDS011;9621;48.690;9.466;2023-05-14T10:39:46;7.10;;;4.53;;
18973;SDS011;9621;48.690;9.466;2023-05-14T10:42:16;7.40;;;4.50;;
18973;SDS011;9621;48.690;9.466;2023-05-14T10:44:47;5.22;;;4.43;;
18973;SDS011;9621;48.690;9.466;2023-05-14T10:47:17;4.65;;;3.92;;
18973;SDS011;9621;48.690;9.466;2023-05-14T10:49:45;5.15;;;3.38;;
18973;SDS011;9621;48.690;9.466;2023-05-14T10:52:15;3.83;;;3.42;;
18973;SDS011;9621;48.690;9.466;2023-05-14T10:54:50;3.92;;;3.42;;
18973;SDS011;9621;48.690;9.466;2023-05-14T10:57:18;5.55;;;3.40;;
18973;SDS011;9621;48.690;9.466;2023-05-14T10:59:46;3.17;;;2.88;;
18973;SDS011;9621;48.690;9.466;2023-05-14T11:02:18;4.15;;;3.47;;
18973;SDS011;9621;48.690;9.466;2023-05-14T11:04:57;3.30;;;2.97;;
18973;SDS011;9621;48.690;9.466;2023-05-14T11:07:35;2.90;;;2.58;;
18973;SDS011;9621;48.690;9.466;2023-05-14T11:10:03;3.00;;;2.60;;
18973;SDS011;9621;48.690;9.466;2023-05-14T11:12:31;3.33;;;3.00;;
18973;SDS011;9621;48.690;9.466;2023-05-14T11:15:00;3.15;;;2.83;;
18973;SDS011;9621;48.690;9.466;2023-05-14T11:17:30;3.90;;;3.03;;
18973;SDS011;9621;48.690;9.466;2023-05-14T11:19:59;6.03;;;3.30;;
18973;SDS011;9621;48.690;9.466;2023-05-14T11:22:26;4.50;;;3.95;;
18973;SDS011;9621;48.690;9.466;2023-05-14T11:24:53;4.88;;;3.85;;
18973;SDS011;9621;48.690;9.466;2023-05-14T11:27:20;5.00;;;3.78;;
18973;SDS011;9621;48.690;9.466;2023-05-14T11:29:48;4.28;;;3.75;;
18973;SDS011;9621;48.690;9.466;2023-05-14T11:32:16;7.35;;;3.38;;
18973;SDS011;9621;48.690;9.466;2023-05-14T11:34:45;6.10;;;3.55;;
18973;SDS011;9621;48.690;9.466;2023-05-14T11:37:12;4.60;;;3.10;;
18973;SDS011;9621;48.690;9.466;2023-05-14T11:39:45;2.75;;;2.55;;
18973;SDS011;9621;48.690;9.466;2023-05-14T11:42:14;4.10;;;2.80;;
18973;SDS011;9621;48.690;9.466;2023-05-14T11:44:42;3.38;;;2.70;;
18973;SDS011;9621;48.690;9.466;2023-05-14T11:47:10;3.33;;;2.97;;
18973;SDS011;9621;48.690;9.466;2023-05-14T11:49:37;3.00;;;2.70;;
18973;SDS011;9621;48.690;9.466;2023-05-14T11:52:07;3.40;;;2.80;;
18973;SDS011;9621;48.690;9.466;2023-05-14T11:54:35;3.40;;;2.63;;
18973;SDS011;9621;48.690;9.466;2023-05-14T11:57:06;5.45;;;2.63;;
18973;SDS011;9621;48.690;9.466;2023-05-14T11:59:34;3.22;;;2.72;;
18973;SDS011;9621;48.690;9.466;2023-05-14T12:02:01;2.80;;;2.60;;
18973;SDS011;9621;48.690;9.466;2023-05-14T12:04:29;3.20;;;2.85;;
18973;SDS011;9621;48.690;9.466;2023-05-14T12:06:56;3.00;;;2.60;;
18973;SDS011;9621;48.690;9.466;2023-05-14T12:09:26;3.42;;;2.72;;
18973;SDS011;9621;48.690;9.466;2023-05-14T12:11:53;3.08;;;2.75;;
18973;SDS011;9621;48.690;9.466;2023-05-14T12:14:21;3.22;;;2.92;;
18973;SDS011;9621;48.690;9.466;2023-05-14T12:16:49;3.22;;;2.92;;
18973;SDS011;9621;48.690;9.466;2023-05-14T12:19:17;3.35;;;3.00;;
18973;SDS011;9621;48.690;9.466;2023-05-14T12:21:45;4.18;;;2.72;;
18973;SDS011;9621;48.690;9.466;2023-05-14T12:24:16;3.47;;;2.83;;
18973;SDS011;9621;48.690;9.466;2023-05-14T12:26:44;2.92;;;2.72;;
18973;SDS011;9621;48.690;9.466;2023-05-14T12:29:13;3.90;;;3.20;;
18973;SDS011;9621;48.690;9.466;2023-05-14T12:31:44;3.58;;;3.10;;
18973;SDS011;9621;48.690;9.466;2023-05-14T12:34:12;2.72;;;2.50;;
18973;SDS011;9621;48.690;9.466;2023-05-14T12:36:39;3.42;;;3.00;;
18973;SDS011;9621;48.690;9.466;2023-05-14T12:39:06;2.97;;;2.70;;
18973;SDS011;9621;48.690;9.466;2023-05-14T12:41:34;3.40;;;3.00;;
18973;SDS011;9621;48.690;9.466;2023-05-14T12:44:03;4.15;;;2.90;;
18973;SDS011;9621;48.690;9.466;2023-05-14T12:46:31;3.50;;;2.72;;
18973;SDS011;9621;48.690;9.466;2023-05-14T12:48:59;3.30;;;2.83;;
18973;SDS011;9621;48.690;9.466;2023-05-14T12:51:26;2.70;;;2.35;;
18973;SDS011;9621;48.690;9.466;2023-05-14T12:53:53;5.43;;;2.88;;
18973;SDS011;9621;48.690;9.466;2023-05-14T12:56:20;3.25;;;2.80;;
18973;SDS011;9621;48.690;9.466;2023-05-14T12:58:52;2.88;;;2.55;;
18973;SDS011;9621;48.690;9.466;2023-05-14T13:01:21;2.92;;;2.58;;
18973;SDS011;9621;48.690;9.466;2023-05-14T13:03:48;3.17;;;2.70;;
18973;SDS011;9621;48.690;9.466;2023-05-14T13:06:16;3.13;;;2.40;;
18973;SDS011;9621;48.690;9.466;2023-05-14T13:08:43;3.00;;;2.40;;
18973;SDS011;9621;48.690;9.466;2023-05-14T13:11:10;2.60;;;2.40;;
18973;SDS011;9621;48.690;9.466;2023-05-14T13:13:37;3.50;;;2.80;;
18973;SDS011;9621;48.690;9.466;2023-05-14T13:16:04;3.03;;;2.72;;
18973;SDS011;9621;48.690;9.466;2023-05-14T13:18:33;3.03;;;2.72;;
18973;SDS011;9621;48.690;9.466;2023-05-14T13:21:00;4.57;;;2.60;;
18973;SDS011;9621;48.690;9.466;2023-05-14T13:23:30;3.28;;;2.53;;
18973;SDS011;9621;48.690;9.466;2023-05-14T13:25:58;3.05;;;2.35;;
18973;SDS011;9621;48.690;9.466;2023-05-14T13:28:25;2.92;;;2.17;;
18973;SDS011;9621;48.690;9.466;2023-05-14T13:31:02;4.30;;;2.42;;
18973;SDS011;9621;48.690;9.466;2023-05-14T13:33:39;4.20;;;2.60;;
18973;SDS011;9621;48.690;9.466;2023-05-14T13:36:07;3.03;;;2.28;;
18973;SDS011;9621;48.690;9.466;2023-05-14T13:38:35;2.70;;;2.50;;
18973;SDS011;9621;48.690;9.466;2023-05-14T13:41:03;4.00;;;2.65;;
18973;SDS011;9621;48.690;9.466;2023-05-14T13:43:30;4.82;;;2.65;;
18973;SDS011;9621;48.690;9.466;2023-05-14T13:45:58;3.30;;;2.88;;
18973;SDS011;9621;48.690;9.466;2023-05-14T13:48:25;3.22;;;2.72;;
18973;SDS011;9621;48.690;9.466;2023-05-14T13:50:54;4.75;;;2.40;;
18973;SDS011;9621;48.690;9.466;2023-05-14T13:53:22;2.47;;;2.00;;
18973;SDS011;9621;48.690;9.466;2023-05-14T13:55:50;3.17;;;2.35;;
18973;SDS011;9621;48.690;9.466;2023-05-14T13:58:20;3.10;;;2.50;;
18973;SDS011;9621;48.690;9.466;2023-05-14T14:00:47;2.45;;;2.10;;
18973;SDS011;9621;48.690;9.466;2023-05-14T14:03:15;2.50;;;2.30;;
18973;SDS011;9621;48.690;9.466;2023-05-14T14:05:45;2.20;;;2.00;;
18973;SDS011;9621;48.690;9.466;2023-05-14T14:08:13;2.50;;;2.30;;
18973;SDS011;9621;48.690;9.466;2023-05-14T14:10:40;3.25;;;2.33;;
18973;SDS011;9621;48.690;9.466;2023-05-14T14:13:08;2.60;;;2.40;;
18973;SDS011;9621;48.690;9.466;2023-05-14T14:15:35;3.25;;;2.15;;
18973;SDS011;9621;48.690;9.466;2023-05-14T14:18:02;6.32;;;2.33;;
18973;SDS011;9621;48.690;9.466;2023-05-14T14:20:29;2.30;;;2.08;;
18973;SDS011;9621;48.690;9.466;2023-05-14T14:22:56;4.05;;;2.30;;
18973;SDS011;9621;48.690;9.466;2023-05-14T14:25:25;2.28;;;1.63;;
18973;SDS011;9621;48.690;9.466;2023-05-14T14:27:52;3.13;;;2.10;;
18973;SDS011;9621;48.690;9.466;2023-05-14T14:30:19;4.32;;;2.00;;
18973;SDS011;9621;48.690;9.466;2023-05-14T14:32:46;3.00;;;2.10;;
18973;SDS011;9621;48.690;9.466;2023-05-14T14:35:14;3.35;;;2.03;;
18973;SDS011;9621;48.690;9.466;2023-05-14T14:37:44;2.40;;;2.20;;
18973;SDS011;9621;48.690;9.466;2023-05-14T14:40:14;2.92;;;2.20;;
18973;SDS011;9621;48.690;9.466;2023-05-14T14:42:49;3.42;;;2.78;;
18973;SDS011;9621;48.690;9.466;2023-05-14T14:45:15;3.25;;;2.08;;
18973;SDS011;9621;48.690;9.466;2023-05-14T14:47:43;2.80;;;2.38;;
18973;SDS011;9621;48.690;9.466;2023-05-14T14:50:11;4.43;;;2.42;;
18973;SDS011;9621;48.690;9.466;2023-05-14T14:52:39;2.92;;;2.60;;
18973;SDS011;9621;48.690;9.466;2023-05-14T14:55:09;3.28;;;2.60;;
18973;SDS011;9621;48.690;9.466;2023-05-14T14:57:36;2.58;;;2.38;;
18973;SDS011;9621;48.690;9.466;2023-05-14T15:00:05;4.72;;;2.70;;
18973;SDS011;9621;48.690;9.466;2023-05-14T15:02:33;3.10;;;2.80;;